Bathurst Airport Bathurst CA
ICAO: CZBF
IATA: ZBF
Category: Medium
Scheduled Services: Yes

Elevation: 193 ft
TransAlt. 18000 ft.

Airport Communications:
QUEBEC RDO:123.45
ATF/UNICOM:122.8

CZBF Zoom In..

Runways:

(A) RW 10 length 4500 ft width 100 ft
---- / hdg 102

(B) RW 28 length 4500 ft width 100 ft
---- / hdg 282

Location; CZBF
Day. 14 / Time. 14.00 Zulu
* Altimeter: 29.92
* Temperature: 25° c. 77°f.
* Wind from: 000° Speed 00 kn.
Dewpoint: 19° c.
Visibility: 12 Statute Miles.
Clouds: Few 2500 ft.
Clouds: Few 1000 ft.
Clouds: Broken 22000 ft.

CZBF 141400Z 00000KT 12SM FEW025 FEW100 BKN220 25/19 A2992 RMK CU1AC1CI7 CU TR AC TR SLP132 DENSITY ALT 1400FT


Wind - Calm.

 
 
jpsmedia.com for Web Design worldairports.se 2018   terms of use